Date,TemperatureHighF,TemperatureAvgF,TemperatureLowF,DewpointHighF,DewpointAvgF,DewpointLowF,HumidityHigh,HumidityAvg,HumidityLow,PressureMaxIn,PressureMinIn,WindSpeedMaxMPH,WindSpeedAvgMPH,GustSpeedMaxMPH,PrecipitationSumIn
2013-3-1,44,38,31,28,25,22,78,61,49,29.92,29.78,5,0,9,0.00
2013-3-2,38,35,32,23,20,17,65,55,49,29.92,29.84,4,0,11,0.00
2013-3-3,44,34,25,21,17,13,75,50,33,29.96,29.82,7,1,14,0.00
2013-3-4,49,35,26,18,12,9,60,41,20,30.07,29.96,10,1,13,0.00
2013-3-5,50,38,27,32,23,12,85,55,32,30.10,29.75,4,0,6,0.18
2013-3-6,33,33,33,30,30,29,91,88,85,29.74,29.57,0,0,2,0.01
2013-3-8,47,42,32,28,25,22,75,53,44,30.30,30.18,10,2,17,0.20
2013-3-9,58,41,28,27,24,16,83,55,20,30.36,30.27,5,0,9,0.00
2013-3-10,63,46,28,32,26,22,82,49,23,30.33,30.20,4,0,6,0.00
2013-3-11,63,50,35,49,39,25,84,68,41,30.24,29.91,3,0,7,0.01
2013-3-12,67,57,40,60,48,32,95,72,44,29.96,29.70,7,1,13,0.56
2013-3-13,52,41,31,32,24,14,82,54,31,30.12,29.92,15,2,16,0.00
2013-3-14,50,39,29,18,15,11,63,39,22,30.19,30.07,7,1,17,0.00
2013-3-15,59,43,27,33,23,15,69,47,31,30.14,29.82,6,0,14,0.00
2013-3-16,57,46,41,54,40,31,94,78,60,29.88,29.64,2,0,17,0.09
2013-3-17,42,37,33,37,33,30,88,85,82,30.29,29.88,2,0,4,0.09
2013-3-18,34,33,33,31,30,29,92,90,86,30.30,29.92,4,0,5,0.41
2013-3-19,64,45,32,42,26,3,95,59,15,29.99,29.74,13,2,26,0.17
2013-3-20,55,44,31,23,12,5,60,29,17,30.04,29.76,9,1,15,0.00
2013-3-21,40,34,28,25,14,7,72,44,27,29.96,29.76,13,2,16,0.00
2013-3-22,50,36,22,21,14,8,64,42,25,30.03,29.90,7,1,15,0.00
2013-3-23,55,39,24,24,20,15,76,49,23,30.08,29.91,4,0,9,0.00
2013-3-24,41,37,34,23,21,20,61,53,45,30.01,29.76,3,0,6,0.00
2013-3-25,36,34,32,31,29,27,84,83,82,29.74,29.70,0,0,0,0.52
2013-3-26,48,38,29,31,27,23,92,66,41,30.06,29.74,8,1,15,0.16
2013-3-27,51,41,31,27,24,20,76,51,33,30.18,30.05,12,2,19,0.00
2013-3-28,52,40,29,26,23,21,75,53,34,30.28,30.15,14,1,19,0.00
2013-3-29,58,44,32,31,27,23,79,55,28,30.31,30.16,8,0,13,0.00
2013-3-30,63,47,30,33,27,24,81,50,25,30.25,30.09,5,0,10,0.00
2013-3-31,54,46,40,48,40,30,92,79,62,30.10,29.77,2,0,5,0.06